createdAt,value
2022-11-16T00:00:11.200Z,98421.63
2022-11-16T00:02:39.576Z,98415.66
2022-11-16T00:05:08.847Z,98419.56
2022-11-16T00:07:37.318Z,98416.72
2022-11-16T00:10:07.984Z,98427.44
2022-11-16T00:12:37.588Z,98429.03
2022-11-16T00:15:07.712Z,98422.88
2022-11-16T00:17:35.862Z,98424.25
2022-11-16T00:20:04.676Z,98411.25
2022-11-16T00:22:32.858Z,98409.97
2022-11-16T00:25:01.055Z,98418.25
2022-11-16T00:27:29.442Z,98413.41
2022-11-16T00:29:59.267Z,98411.47
2022-11-16T00:32:27.513Z,98418.34
2022-11-16T00:34:55.862Z,98419.00
2022-11-16T00:37:24.363Z,98418.38
2022-11-16T00:39:52.828Z,98395.34
2022-11-16T00:42:21.022Z,98419.66
2022-11-16T00:44:49.260Z,98425.16
2022-11-16T00:47:19.877Z,98428.22
2022-11-16T00:49:48.102Z,98425.97
2022-11-16T00:52:16.303Z,98415.47
2022-11-16T00:54:45.222Z,98412.09
2022-11-16T00:57:13.823Z,98413.50
2022-11-16T00:59:42.853Z,98408.53
2022-11-16T01:02:11.037Z,98395.00
2022-11-16T01:04:43.654Z,98396.97
2022-11-16T01:07:11.847Z,98400.00
2022-11-16T01:09:40.656Z,98398.97
2022-11-16T01:12:11.041Z,98406.66
2022-11-16T01:14:40.737Z,98394.38
2022-11-16T01:17:09.844Z,98387.66
2022-11-16T01:19:41.473Z,98388.66
2022-11-16T01:22:14.212Z,98391.28
2022-11-16T01:24:43.477Z,98399.53
2022-11-16T01:27:12.757Z,98398.72
2022-11-16T01:29:51.974Z,98392.09
2022-11-16T01:32:24.324Z,98398.56
2022-11-16T01:34:52.576Z,98403.81
2022-11-16T01:37:30.727Z,98391.78
2022-11-16T01:40:00.253Z,98398.84
2022-11-16T01:42:33.527Z,98389.78
2022-11-16T01:45:17.324Z,98389.34
2022-11-16T01:47:46.063Z,98389.34
2022-11-16T01:50:20.267Z,98377.72
2022-11-16T01:52:56.800Z,98370.03
2022-11-16T01:55:31.214Z,98360.34
2022-11-16T01:58:14.074Z,98358.69
2022-11-16T02:00:42.435Z,98368.38
2022-11-16T02:03:28.985Z,98373.44
2022-11-16T02:06:16.915Z,98365.81
2022-11-16T02:09:35.283Z,98355.34
2022-11-16T02:12:35.484Z,98353.53
2022-11-16T02:15:21.561Z,98352.72
2022-11-16T02:18:15.290Z,98348.28
2022-11-16T02:21:03.264Z,98340.84
2022-11-16T02:24:23.278Z,98347.91
2022-11-16T02:27:39.531Z,98341.47
2022-11-16T02:30:09.553Z,98330.97
2022-11-16T02:32:50.938Z,98330.19
2022-11-16T02:35:24.820Z,98332.19
2022-11-16T02:38:01.302Z,98331.38
2022-11-16T02:40:34.347Z,98333.81
2022-11-16T02:43:09.155Z,98338.44
2022-11-16T02:45:43.894Z,98338.44
2022-11-16T02:48:21.675Z,98341.69
2022-11-16T02:50:52.684Z,98351.56
2022-11-16T02:53:22.585Z,98356.38
2022-11-16T02:55:50.970Z,98346.31
2022-11-16T02:58:23.961Z,98346.31
2022-11-16T03:01:02.158Z,98363.03
2022-11-16T03:03:39.846Z,98374.94
2022-11-16T03:06:14.094Z,98355.19
2022-11-16T03:08:47.255Z,98357.56
2022-11-16T03:11:33.576Z,98384.13
2022-11-16T03:14:10.007Z,98394.34
2022-11-16T03:16:44.895Z,98386.13
2022-11-16T03:19:20.879Z,98381.91
2022-11-16T03:21:57.233Z,98385.50
2022-11-16T03:24:26.190Z,98385.47
2022-11-16T03:27:02.976Z,98393.28
2022-11-16T03:29:36.662Z,98393.09
2022-11-16T03:32:20.150Z,98389.47
2022-11-16T03:34:58.588Z,98396.97
2022-11-16T03:37:29.951Z,98397.00
2022-11-16T03:40:02.131Z,98402.25
2022-11-16T03:42:34.369Z,98388.75
2022-11-16T03:45:04.153Z,98388.31
2022-11-16T03:47:33.886Z,98386.38
2022-11-16T03:50:02.227Z,98389.78
2022-11-16T03:52:31.198Z,98393.75
2022-11-16T03:55:00.031Z,98397.88
2022-11-16T03:57:28.605Z,98397.66
2022-11-16T03:59:59.948Z,98393.16
2022-11-16T04:02:28.239Z,98394.00
2022-11-16T04:05:18.321Z,98392.41
2022-11-16T04:08:04.400Z,98401.31
2022-11-16T04:10:51.208Z,98398.91
2022-11-16T04:13:45.092Z,98395.72
2022-11-16T04:16:30.810Z,98401.56
2022-11-16T04:19:18.159Z,98412.84
2022-11-16T04:22:10.384Z,98410.50
2022-11-16T04:24:42.895Z,98414.41
2022-11-16T04:27:32.149Z,98414.94
2022-11-16T04:30:04.057Z,98418.31
2022-11-16T04:32:53.002Z,98413.28
2022-11-16T04:35:38.827Z,98416.63
2022-11-16T04:38:11.811Z,98420.03
2022-11-16T04:40:39.987Z,98420.59
2022-11-16T04:43:10.360Z,98426.78
2022-11-16T04:45:59.293Z,98431.97
2022-11-16T04:48:35.353Z,98434.66
2022-11-16T04:51:05.365Z,98432.25
2022-11-16T04:53:36.393Z,98433.44
2022-11-16T04:56:22.251Z,98433.28
2022-11-16T04:58:50.787Z,98427.03
2022-11-16T05:01:40.492Z,98431.31
2022-11-16T05:04:08.833Z,98431.53
2022-11-16T05:06:37.167Z,98436.88
2022-11-16T05:09:07.010Z,98431.34
2022-11-16T05:11:35.319Z,98437.25
2022-11-16T05:14:05.772Z,98430.03
2022-11-16T05:16:34.335Z,98435.00
2022-11-16T05:19:20.401Z,98430.16
2022-11-16T05:21:49.353Z,98426.91
2022-11-16T05:24:38.124Z,98424.56
2022-11-16T05:27:11.248Z,98430.81
2022-11-16T05:29:40.860Z,98433.97
2022-11-16T05:32:12.041Z,98448.47
2022-11-16T05:34:41.430Z,98442.59
2022-11-16T05:37:11.924Z,98451.94
2022-11-16T05:39:41.989Z,98445.59
2022-11-16T05:42:11.377Z,98454.63
2022-11-16T05:44:39.698Z,98454.81
2022-11-16T05:47:11.239Z,98443.69
2022-11-16T05:49:39.508Z,98449.91
2022-11-16T05:52:07.648Z,98456.69
2022-11-16T05:54:37.046Z,98458.53
2022-11-16T05:57:07.689Z,98457.56
2022-11-16T05:59:36.473Z,98463.63
2022-11-16T06:02:06.036Z,98467.88
2022-11-16T06:04:35.877Z,98465.56
2022-11-16T06:07:04.777Z,98466.88
2022-11-16T06:09:36.658Z,98477.34
2022-11-16T06:12:16.395Z,98475.78
2022-11-16T06:14:45.682Z,98479.09
2022-11-16T06:17:14.591Z,98483.00
2022-11-16T06:19:43.484Z,98484.28
2022-11-16T06:22:12.026Z,98472.28
2022-11-16T06:24:40.300Z,98481.81
2022-11-16T06:27:08.716Z,98474.28
2022-11-16T06:29:38.764Z,98472.13
2022-11-16T06:32:06.988Z,98471.47
2022-11-16T06:34:36.398Z,98479.53
2022-11-16T06:37:05.558Z,98478.81
2022-11-16T06:39:34.052Z,98476.22
2022-11-16T06:42:02.848Z,98480.88
2022-11-16T06:44:31.087Z,98479.56
2022-11-16T06:47:04.808Z,98478.94
2022-11-16T06:49:35.433Z,98479.56
2022-11-16T06:52:09.322Z,98481.50
2022-11-16T06:54:37.668Z,98482.53
2022-11-16T06:57:06.245Z,98479.00
2022-11-16T06:59:34.998Z,98482.63
2022-11-16T07:02:04.871Z,98486.94
2022-11-16T07:04:35.168Z,98485.84
2022-11-16T07:07:04.779Z,98480.88
2022-11-16T07:09:35.318Z,98485.09
2022-11-16T07:12:04.092Z,98490.97
2022-11-16T07:14:38.464Z,98491.06
2022-11-16T07:17:10.791Z,98494.28
2022-11-16T07:19:40.081Z,98492.91
2022-11-16T07:22:09.602Z,98501.13
2022-11-16T07:24:38.264Z,98496.44
2022-11-16T07:27:09.184Z,98504.53
2022-11-16T07:29:41.176Z,98520.81
2022-11-16T07:32:30.769Z,98515.38
2022-11-16T07:35:12.862Z,98518.47
2022-11-16T07:37:41.948Z,98519.22
2022-11-16T07:40:11.323Z,98522.75
2022-11-16T07:42:42.045Z,98509.41
2022-11-16T07:45:34.771Z,98513.66
2022-11-16T07:48:09.592Z,98496.00
2022-11-16T07:51:05.330Z,98515.25
2022-11-16T07:53:36.130Z,98518.25
2022-11-16T07:56:05.231Z,98518.94
2022-11-16T07:58:36.691Z,98527.13
2022-11-16T08:01:06.983Z,98530.22
2022-11-16T08:03:38.268Z,98533.66
2022-11-16T08:06:12.204Z,98532.50
2022-11-16T08:08:40.769Z,98538.72
2022-11-16T08:11:11.774Z,98543.28
2022-11-16T08:13:41.976Z,98537.91
2022-11-16T08:16:14.698Z,98542.63
2022-11-16T08:18:45.680Z,98553.59
2022-11-16T08:21:16.989Z,98560.38
2022-11-16T08:23:46.206Z,98564.25
2022-11-16T08:26:17.799Z,98565.38
2022-11-16T08:28:53.744Z,98566.47
2022-11-16T08:31:29.201Z,98559.03
2022-11-16T08:34:09.989Z,98557.84
2022-11-16T08:36:41.571Z,98558.13
2022-11-16T08:39:10.447Z,98561.97
2022-11-16T08:41:42.036Z,98558.84
2022-11-16T08:44:12.338Z,98557.97
2022-11-16T08:46:44.624Z,98566.31
2022-11-16T08:49:28.858Z,98562.94
2022-11-16T08:51:57.633Z,98572.78
2022-11-16T08:54:27.983Z,98565.81
2022-11-16T08:56:56.169Z,98563.53
2022-11-16T08:59:24.566Z,98574.38
2022-11-16T09:01:56.705Z,98571.25
2022-11-16T09:04:25.066Z,98564.22
2022-11-16T09:06:54.924Z,98571.53
2022-11-16T09:09:23.142Z,98563.06
2022-11-16T09:11:53.506Z,98573.47
2022-11-16T09:14:21.876Z,98570.56
2022-11-16T09:16:51.249Z,98575.22
2022-11-16T09:19:20.503Z,98578.28
2022-11-16T09:21:48.643Z,98587.97
2022-11-16T09:24:18.403Z,98577.78
2022-11-16T09:26:46.633Z,98585.06
2022-11-16T09:29:16.578Z,98581.25
2022-11-16T09:31:46.192Z,98577.28
2022-11-16T09:34:14.460Z,98571.16
2022-11-16T09:36:43.724Z,98573.59
2022-11-16T09:39:29.976Z,98567.13
2022-11-16T09:42:19.737Z,98574.91
2022-11-16T09:45:04.918Z,98570.78
2022-11-16T09:47:49.999Z,98566.25
2022-11-16T09:50:37.011Z,98560.91
2022-11-16T09:53:31.401Z,98570.44
2022-11-16T09:56:05.167Z,98563.50
2022-11-16T09:58:44.675Z,98558.22
2022-11-16T10:01:25.067Z,98567.25
2022-11-16T10:04:01.601Z,98558.72
2022-11-16T10:06:41.411Z,98564.97
2022-11-16T10:09:13.042Z,98562.41
2022-11-16T10:12:01.864Z,98558.53
2022-11-16T10:15:12.792Z,98558.84
2022-11-16T10:17:59.418Z,98557.19
2022-11-16T10:20:58.383Z,98549.78
2022-11-16T10:23:42.917Z,98556.22
2022-11-16T10:26:27.115Z,98548.69
2022-11-16T10:29:15.250Z,98545.44
2022-11-16T10:32:04.478Z,98549.59
2022-11-16T10:34:49.196Z,98553.09
2022-11-16T10:37:17.617Z,98544.75
2022-11-16T10:39:49.372Z,98537.94
2022-11-16T10:42:24.016Z,98533.38
2022-11-16T10:44:59.652Z,98529.81
2022-11-16T10:47:41.749Z,98525.94
2022-11-16T10:50:32.372Z,98525.97
2022-11-16T10:53:01.530Z,98530.28
2022-11-16T10:55:30.500Z,98525.63
2022-11-16T10:58:01.749Z,98517.34
2022-11-16T11:00:40.270Z,98522.50
2022-11-16T11:03:11.864Z,98515.72
2022-11-16T11:05:54.477Z,98509.78
2022-11-16T11:08:30.400Z,98500.75
2022-11-16T11:11:22.541Z,98499.94
2022-11-16T11:14:05.855Z,98501.59
2022-11-16T11:16:34.172Z,98497.72
2022-11-16T11:19:30.852Z,98494.16
2022-11-16T11:22:00.358Z,98494.94
2022-11-16T11:24:44.074Z,98488.88
2022-11-16T11:27:13.355Z,98489.94
2022-11-16T11:29:43.835Z,98485.28
2022-11-16T11:32:23.587Z,98486.28
2022-11-16T11:34:57.054Z,98470.13
2022-11-16T11:37:30.455Z,98474.56
2022-11-16T11:40:20.088Z,98477.41
2022-11-16T11:42:58.639Z,98474.78
2022-11-16T11:45:43.561Z,98470.16
2022-11-16T11:48:34.293Z,98471.38
2022-11-16T11:51:13.190Z,98460.47
2022-11-16T11:53:51.523Z,98465.53
2022-11-16T11:56:20.466Z,98455.59
2022-11-16T11:58:51.608Z,98449.16
2022-11-16T12:01:49.195Z,98455.19
2022-11-16T12:05:16.233Z,98448.66
2022-11-16T12:08:07.097Z,98461.34
2022-11-16T12:10:48.128Z,98458.06
2022-11-16T12:13:48.710Z,98456.06
2022-11-16T12:16:30.232Z,98458.69
2022-11-16T12:19:25.790Z,98435.00
2022-11-16T12:22:10.083Z,98443.03
2022-11-16T12:25:08.619Z,98442.72
2022-11-16T12:27:48.146Z,98429.19
2022-11-16T12:30:20.215Z,98431.50
2022-11-16T12:33:11.518Z,98431.41
2022-11-16T12:35:53.072Z,98420.53
2022-11-16T12:38:41.575Z,98410.59
2022-11-16T12:41:34.810Z,98414.72
2022-11-16T12:44:09.193Z,98414.94
2022-11-16T12:46:51.905Z,98402.53
2022-11-16T12:50:00.148Z,98392.50
2022-11-16T12:52:58.140Z,98388.91
2022-11-16T12:55:39.323Z,98390.84
2022-11-16T12:58:21.633Z,98392.63
2022-11-16T13:01:03.690Z,98379.59
2022-11-16T13:03:42.735Z,98380.16
2022-11-16T13:06:18.203Z,98387.19
2022-11-16T13:08:58.392Z,98383.13
2022-11-16T13:11:32.303Z,98386.94
2022-11-16T13:14:09.336Z,98394.31
2022-11-16T13:16:37.763Z,98387.81
2022-11-16T13:19:17.482Z,98380.59
2022-11-16T13:21:56.687Z,98375.38
2022-11-16T13:24:47.779Z,98386.88
2022-11-16T13:27:35.858Z,98372.50
2022-11-16T13:30:18.309Z,98370.25
2022-11-16T13:33:14.526Z,98372.69
2022-11-16T13:35:43.858Z,98370.19
2022-11-16T13:38:14.897Z,98369.72
2022-11-16T13:40:43.977Z,98363.66
2022-11-16T13:43:21.187Z,98366.91
2022-11-16T13:45:59.883Z,98360.25
2022-11-16T13:48:35.933Z,98367.81
2022-11-16T13:51:07.730Z,98364.88
2022-11-16T13:56:29.502Z,98366.22
2022-11-16T13:58:59.513Z,98369.13
2022-11-16T14:01:59.864Z,98372.03
2022-11-16T14:04:43.946Z,98360.53
2022-11-16T14:07:35.762Z,98370.16
2022-11-16T14:10:07.919Z,98378.16
2022-11-16T14:13:00.692Z,98387.75
2022-11-16T14:15:38.647Z,98380.84
2022-11-16T14:18:37.287Z,98375.91
2022-11-16T14:21:26.613Z,98368.59
2022-11-16T14:24:14.552Z,98369.91
2022-11-16T14:26:54.262Z,98368.47
2022-11-16T14:29:50.523Z,98360.91
2022-11-16T14:32:23.510Z,98361.63
2022-11-16T14:34:56.349Z,98362.00
2022-11-16T14:37:35.879Z,98364.19
2022-11-16T14:40:11.307Z,98353.25
2022-11-16T14:43:14.845Z,98351.19
2022-11-16T14:45:40.191Z,98347.34
2022-11-16T14:48:17.304Z,98340.84
2022-11-16T14:51:03.728Z,98336.09
2022-11-16T14:53:33.228Z,98330.88
2022-11-16T14:56:11.627Z,98331.63
2022-11-16T14:58:40.454Z,98327.88
2022-11-16T15:01:15.742Z,98336.56
2022-11-16T15:03:54.851Z,98325.53
2022-11-16T15:06:27.765Z,98319.81
2022-11-16T15:09:01.596Z,98320.00
2022-11-16T15:11:46.947Z,98327.91
2022-11-16T15:14:21.951Z,98309.78
2022-11-16T15:16:52.820Z,98318.69
2022-11-16T15:19:22.022Z,98316.47
2022-11-16T15:21:57.719Z,98314.84
2022-11-16T15:24:30.919Z,98305.78
2022-11-16T15:27:12.459Z,98298.69
2022-11-16T15:29:40.696Z,98309.41
2022-11-16T15:32:17.309Z,98318.09
2022-11-16T15:34:59.934Z,98308.41
2022-11-16T15:37:32.225Z,98312.22
2022-11-16T15:40:03.195Z,98308.78
2022-11-16T15:42:31.597Z,98303.56
2022-11-16T15:45:16.364Z,98304.38
2022-11-16T15:47:46.974Z,98294.91
2022-11-16T15:50:19.336Z,98295.91
2022-11-16T15:52:55.173Z,98293.47
2022-11-16T15:55:35.143Z,98291.25
2022-11-16T15:58:14.556Z,98278.72
2022-11-16T16:00:43.709Z,98280.16
2022-11-16T16:03:22.811Z,98275.91
2022-11-16T16:05:52.071Z,98274.03
2022-11-16T16:08:34.450Z,98265.63
2022-11-16T16:11:06.883Z,98263.00
2022-11-16T16:13:37.869Z,98267.31
2022-11-16T16:16:27.239Z,98266.34
2022-11-16T16:19:03.810Z,98260.09
2022-11-16T16:21:45.694Z,98259.78
2022-11-16T16:24:38.387Z,98263.63
2022-11-16T16:27:18.582Z,98267.38
2022-11-16T16:29:47.899Z,98258.97
2022-11-16T16:32:25.106Z,98259.44
2022-11-16T16:34:54.331Z,98267.38
2022-11-16T16:37:23.377Z,98253.16
2022-11-16T16:39:52.918Z,98251.34
2022-11-16T16:42:21.262Z,98243.44
2022-11-16T16:44:50.516Z,98245.28
2022-11-16T16:47:21.093Z,98242.69
2022-11-16T16:49:49.835Z,98245.97
2022-11-16T16:52:18.871Z,98244.09
2022-11-16T16:54:47.116Z,98245.09
2022-11-16T16:57:18.476Z,98239.63
2022-11-16T16:59:48.446Z,98236.19
2022-11-16T17:02:18.049Z,98230.38
2022-11-16T17:04:48.318Z,98233.59
2022-11-16T17:07:16.924Z,98230.75
2022-11-16T17:09:45.269Z,98215.56
2022-11-16T17:12:13.728Z,98214.91
2022-11-16T17:14:43.851Z,98210.63
2022-11-16T17:17:12.149Z,98203.81
2022-11-16T17:19:40.409Z,98196.41
2022-11-16T17:22:08.568Z,98199.69
2022-11-16T17:24:38.517Z,98199.31
2022-11-16T17:27:06.888Z,98185.22
2022-11-16T17:29:35.093Z,98183.38
2022-11-16T17:32:06.089Z,98169.88
2022-11-16T17:34:34.375Z,98165.44
2022-11-16T17:37:05.338Z,98170.91
2022-11-16T17:39:35.519Z,98168.22
2022-11-16T17:42:03.852Z,98176.75
2022-11-16T17:44:32.032Z,98175.19
2022-11-16T17:47:00.184Z,98179.81
2022-11-16T17:49:29.680Z,98184.38
2022-11-16T17:51:57.804Z,98178.59
2022-11-16T17:54:26.890Z,98172.13
2022-11-16T17:56:56.400Z,98171.97
2022-11-16T17:59:29.250Z,98172.50
2022-11-16T18:01:58.663Z,98178.03
2022-11-16T18:04:27.113Z,98166.25
2022-11-16T18:06:59.758Z,98162.06
2022-11-16T18:09:28.037Z,98161.38
2022-11-16T18:11:58.396Z,98161.38
2022-11-16T18:14:27.728Z,98156.13
2022-11-16T18:16:55.853Z,98157.00
2022-11-16T18:19:24.509Z,98157.31
2022-11-16T18:21:53.057Z,98165.50
2022-11-16T18:24:22.650Z,98169.91
2022-11-16T18:26:50.727Z,98162.63
2022-11-16T18:29:19.245Z,98172.81
2022-11-16T18:31:47.468Z,98174.66
2022-11-16T18:34:16.696Z,98170.97
2022-11-16T18:36:46.563Z,98169.00
2022-11-16T18:39:14.819Z,98161.25
2022-11-16T18:41:51.690Z,98164.69
2022-11-16T18:44:24.969Z,98163.47
2022-11-16T18:46:54.673Z,98164.97
2022-11-16T18:49:23.541Z,98173.41
2022-11-16T18:51:51.891Z,98177.50
2022-11-16T18:54:20.253Z,98163.00
2022-11-16T18:56:49.992Z,98166.13
2022-11-16T18:59:18.599Z,98160.25
2022-11-16T19:01:47.042Z,98163.69
2022-11-16T19:04:15.475Z,98153.22
2022-11-16T19:06:43.951Z,98162.06
2022-11-16T19:09:12.111Z,98154.44
2022-11-16T19:11:43.317Z,98150.88
2022-11-16T19:14:13.342Z,98157.31
2022-11-16T19:16:49.979Z,98149.41
2022-11-16T19:19:21.696Z,98151.53
2022-11-16T19:21:51.840Z,98145.81
2022-11-16T19:24:24.911Z,98140.19
2022-11-16T19:26:55.102Z,98139.03
2022-11-16T19:29:24.988Z,98126.59
2022-11-16T19:31:53.186Z,98128.22
2022-11-16T19:34:21.433Z,98120.00
2022-11-16T19:36:49.924Z,98119.78
2022-11-16T19:39:18.174Z,98095.13
2022-11-16T19:41:47.120Z,98090.28
2022-11-16T19:44:15.298Z,98080.41
2022-11-16T19:46:45.058Z,98074.47
2022-11-16T19:49:19.989Z,98075.69
2022-11-16T19:51:49.227Z,98067.72
2022-11-16T19:54:17.562Z,98059.50
2022-11-16T19:56:48.272Z,98057.31
2022-11-16T19:59:20.314Z,98050.28
2022-11-16T20:01:49.890Z,98045.22
2022-11-16T20:04:18.169Z,98044.19
2022-11-16T20:06:46.496Z,98035.50
2022-11-16T20:09:14.756Z,98040.53
2022-11-16T20:11:43.399Z,98035.19
2022-11-16T20:14:14.794Z,98034.31
2022-11-16T20:16:49.660Z,98028.25
2022-11-16T20:19:20.445Z,98026.50
2022-11-16T20:21:48.739Z,98022.44
2022-11-16T20:24:18.776Z,98009.81
2022-11-16T20:26:49.642Z,97994.78
2022-11-16T20:29:20.185Z,97994.16
2022-11-16T20:31:48.504Z,97992.94
2022-11-16T20:34:20.845Z,97992.19
2022-11-16T20:36:51.741Z,97993.94
2022-11-16T20:39:22.797Z,97978.41
2022-11-16T20:41:52.409Z,97985.47
2022-11-16T20:44:28.342Z,97978.69
2022-11-16T20:46:59.241Z,97974.88
2022-11-16T20:49:34.860Z,97979.94
2022-11-16T20:52:04.622Z,97966.31
2022-11-16T20:54:34.706Z,97972.16
2022-11-16T20:57:05.096Z,97965.13
2022-11-16T20:59:34.874Z,97970.13
2022-11-16T21:02:05.436Z,97954.47
2022-11-16T21:04:35.703Z,97953.69
2022-11-16T21:07:03.993Z,97956.84
2022-11-16T21:09:52.242Z,97948.84
2022-11-16T21:12:42.611Z,97942.81
2022-11-16T21:15:11.851Z,97941.00
2022-11-16T21:17:40.652Z,97937.38
2022-11-16T21:20:26.797Z,97934.97
2022-11-16T21:22:55.625Z,97926.94
2022-11-16T21:25:23.784Z,97922.34
2022-11-16T21:27:51.953Z,97918.09
2022-11-16T21:30:20.378Z,97913.69
2022-11-16T21:32:49.540Z,97904.03
2022-11-16T21:35:20.850Z,97896.81
2022-11-16T21:37:49.133Z,97890.19
2022-11-16T21:40:17.812Z,97878.13
2022-11-16T21:42:47.496Z,97877.72
2022-11-16T21:45:15.833Z,97869.88
2022-11-16T21:47:44.029Z,97877.94
2022-11-16T21:53:01.914Z,97860.06
2022-11-16T21:55:30.469Z,97856.22
2022-11-16T21:57:59.044Z,97842.53
2022-11-16T22:00:28.433Z,97836.31
2022-11-16T22:02:56.848Z,97816.59
2022-11-16T22:05:42.698Z,97806.78
2022-11-16T22:08:12.647Z,97813.63
2022-11-16T22:10:41.028Z,97796.09
2022-11-16T22:13:09.313Z,97794.69
2022-11-16T22:15:37.464Z,97793.31
2022-11-16T22:18:06.395Z,97785.28
2022-11-16T22:20:34.652Z,97778.63
2022-11-16T22:23:02.920Z,97773.00
2022-11-16T22:25:38.735Z,97763.94
2022-11-16T22:28:24.195Z,97756.06
2022-11-16T22:31:02.440Z,97736.53
2022-11-16T22:33:31.179Z,97727.69
2022-11-16T22:36:00.059Z,97717.84
2022-11-16T22:38:28.774Z,97710.25
2022-11-16T22:40:58.967Z,97710.00
2022-11-16T22:43:29.984Z,97703.38
2022-11-16T22:46:00.759Z,97698.72
2022-11-16T22:48:33.799Z,97691.88
2022-11-16T22:51:07.674Z,97688.00
2022-11-16T22:53:36.852Z,97667.75
2022-11-16T22:56:10.330Z,97657.84
2022-11-16T22:58:39.886Z,97660.44
2022-11-16T23:01:09.887Z,97652.19
2022-11-16T23:03:39.756Z,97643.97
2022-11-16T23:06:09.677Z,97634.94
2022-11-16T23:08:40.307Z,97631.16
2022-11-16T23:11:30.587Z,97634.00
2022-11-16T23:14:17.203Z,97635.19
2022-11-16T23:16:46.294Z,97609.06
2022-11-16T23:19:34.621Z,97607.63
2022-11-16T23:22:21.046Z,97590.53
2022-11-16T23:25:06.813Z,97575.41
2022-11-16T23:27:42.533Z,97571.63
2022-11-16T23:30:13.465Z,97570.06
2022-11-16T23:32:42.512Z,97566.78
2022-11-16T23:35:11.936Z,97557.13
2022-11-16T23:37:55.534Z,97547.63
2022-11-16T23:40:26.879Z,97535.78
2022-11-16T23:43:14.562Z,97531.22
2022-11-16T23:45:44.474Z,97519.56
2022-11-16T23:48:15.576Z,97512.41
2022-11-16T23:50:45.234Z,97509.16
2022-11-16T23:53:13.690Z,97493.69
2022-11-16T23:55:43.104Z,97489.69
2022-11-16T23:58:15.874Z,97482.28
